Time;durP1;ratioP1;P1;durP2;ratioP2;P2;SDS_P1;SDS_P2;PMS_P1;PMS_P2;Temp;Humidity;BMP_temperature;BMP_pressure;BME280_temperature;BME280_humidity;BME280_pressure;Samples;Min_cycle;Max_cycle;Signal;HPM_P1;HPM_P2
2022/12/04 00:02:24;;;;;;;32.53;16.13;;;0.20;99.90;;;;;;4994659;28;20181;-81
2022/12/04 00:04:49;;;;;;;27.60;15.13;;;0.20;99.90;;;;;;4994575;28;20176;-81
2022/12/04 00:07:15;;;;;;;33.20;15.63;;;0.20;99.90;;;;;;4994234;28;20164;-80
2022/12/04 00:09:40;;;;;;;33.27;17.07;;;0.20;99.90;;;;;;4976047;28;20176;-81
2022/12/04 00:12:08;;;;;;;32.83;14.80;;;0.20;99.90;;;;;;4994366;28;20209;-81
2022/12/04 00:14:34;;;;;;;31.13;16.60;;;0.20;99.90;;;;;;4994432;28;20294;-81
2022/12/04 00:16:59;;;;;;;22.63;14.00;;;0.20;99.90;;;;;;4994464;28;20502;-81
2022/12/04 00:19:25;;;;;;;26.23;14.77;;;0.30;99.90;;;;;;4994224;28;20302;-81
2022/12/04 00:21:54;;;;;;;22.40;15.50;;;0.20;99.90;;;;;;4994204;28;20202;-82
2022/12/04 00:24:19;;;;;;;34.00;15.80;;;0.20;99.90;;;;;;4993650;28;20264;-81
2022/12/04 00:26:45;;;;;;;32.33;15.27;;;0.20;99.90;;;;;;4994242;28;20458;-93
2022/12/04 00:29:11;;;;;;;30.33;16.20;;;0.20;99.90;;;;;;4992968;28;20181;-82
2022/12/04 00:31:42;;;;;;;24.77;13.67;;;0.30;99.90;;;;;;4994136;28;20177;-89
2022/12/04 00:34:08;;;;;;;24.93;14.70;;;0.30;99.90;;;;;;4994215;28;20735;-89
2022/12/04 00:36:36;;;;;;;24.00;14.50;;;0.20;99.90;;;;;;4994354;28;20543;-92
2022/12/04 00:39:03;;;;;;;27.00;16.23;;;0.20;99.90;;;;;;4993856;28;20181;-88
2022/12/04 00:41:30;;;;;;;24.70;13.50;;;0.30;99.90;;;;;;4976658;28;20438;-81
2022/12/04 00:43:56;;;;;;;27.70;14.80;;;0.20;99.90;;;;;;4976689;28;20789;-81
2022/12/04 00:46:21;;;;;;;30.50;16.07;;;0.30;99.90;;;;;;4994692;28;20413;-93
2022/12/04 00:48:47;;;;;;;24.27;14.07;;;0.30;99.90;;;;;;4978005;28;20178;-91
2022/12/04 00:51:19;;;;;;;25.83;14.10;;;0.30;99.90;;;;;;4994901;28;20423;-91
2022/12/04 00:53:45;;;;;;;26.27;14.60;;;0.30;99.90;;;;;;4994973;28;20561;-91
2022/12/04 00:56:13;;;;;;;24.37;13.67;;;0.30;99.90;;;;;;4994686;28;20431;-91
2022/12/04 00:58:41;;;;;;;24.50;13.43;;;0.20;99.90;;;;;;4995242;28;20177;-91
2022/12/04 01:01:10;;;;;;;22.63;13.13;;;0.30;99.90;;;;;;4995042;28;20430;-89
2022/12/04 01:03:36;;;;;;;30.17;15.17;;;0.30;99.90;;;;;;4994960;28;20482;-91
2022/12/04 01:06:03;;;;;;;23.53;14.30;;;0.30;99.90;;;;;;4993547;28;20420;-91
2022/12/04 01:08:29;;;;;;;32.70;16.47;;;0.30;99.90;;;;;;4995162;28;20477;-91
2022/12/04 01:10:55;;;;;;;26.40;13.80;;;0.30;99.90;;;;;;4994691;28;20419;-91
2022/12/04 01:13:22;;;;;;;23.90;13.30;;;0.30;99.90;;;;;;4993918;28;20186;-91
2022/12/04 01:15:48;;;;;;;27.27;15.10;;;0.30;99.90;;;;;;4994772;28;20187;-91
2022/12/04 01:18:14;;;;;;;21.43;12.87;;;0.30;99.90;;;;;;4994827;28;20415;-91
2022/12/04 01:20:45;;;;;;;23.50;13.13;;;0.30;99.90;;;;;;4994685;28;20227;-91
2022/12/04 01:23:10;;;;;;;25.50;13.70;;;0.40;99.90;;;;;;4994671;28;20480;-92
2022/12/04 01:25:36;;;;;;;35.33;15.53;;;0.40;99.90;;;;;;4994509;28;20518;-91
2022/12/04 01:28:01;;;;;;;26.07;14.30;;;0.30;99.90;;;;;;4993945;28;20188;-91
2022/12/04 01:30:27;;;;;;;26.83;14.57;;;0.40;99.90;;;;;;4995382;28;20178;-89
2022/12/04 01:32:53;;;;;;;24.40;14.00;;;0.40;99.90;;;;;;4994580;28;20164;-94
2022/12/04 01:35:18;;;;;;;28.83;15.00;;;0.30;99.90;;;;;;4994080;28;20216;-86
2022/12/04 01:37:44;;;;;;;28.80;14.20;;;0.30;99.90;;;;;;4997667;28;20243;-91
2022/12/04 01:40:13;;;;;;;21.20;11.63;;;0.40;99.90;;;;;;4997355;28;20182;-89
2022/12/04 01:42:39;;;;;;;24.63;14.17;;;0.40;99.90;;;;;;4998059;28;20175;-92
2022/12/04 01:45:29;;;;;;;25.77;14.20;;;0.40;99.90;;;;;;4980848;28;20453;-91
2022/12/04 01:48:00;;;;;;;23.77;12.57;;;0.40;99.90;;;;;;4998325;28;20178;-92
2022/12/04 01:50:27;;;;;;;22.20;13.37;;;0.40;99.90;;;;;;4997873;28;20484;-89
2022/12/04 01:52:52;;;;;;;29.00;16.70;;;0.40;99.90;;;;;;4997128;28;20948;-89
2022/12/04 01:55:18;;;;;;;26.63;14.87;;;0.40;99.90;;;;;;4997743;28;20501;-94
2022/12/04 01:57:44;;;;;;;28.03;14.07;;;0.40;99.90;;;;;;4998007;28;20174;-93
2022/12/04 02:00:13;;;;;;;31.13;16.27;;;0.50;99.90;;;;;;4998428;28;20202;-92
2022/12/04 02:02:41;;;;;;;30.77;14.43;;;0.40;99.90;;;;;;4997861;28;20440;-91
2022/12/04 02:05:13;;;;;;;28.00;14.57;;;0.40;99.90;;;;;;4997652;28;20418;-89
2022/12/04 02:07:40;;;;;;;28.60;14.27;;;0.40;99.90;;;;;;4997462;28;20414;-91
2022/12/04 02:10:07;;;;;;;32.20;15.63;;;0.40;99.90;;;;;;4997214;28;20411;-91
2022/12/04 02:12:52;;;;;;;23.47;11.90;;;0.40;99.90;;;;;;4997702;28;20407;-86
2022/12/04 02:15:35;;;;;;;29.23;15.47;;;0.40;99.90;;;;;;4997494;28;20488;-87
2022/12/04 02:18:09;;;;;;;27.60;13.83;;;0.40;99.90;;;;;;4997519;28;21037;-92
2022/12/04 02:21:19;;;;;;;25.77;13.90;;;0.40;99.90;;;;;;4997265;28;20454;-91
2022/12/04 02:24:20;;;;;;;26.53;14.57;;;0.40;99.90;;;;;;4979738;28;20470;-86
2022/12/04 02:26:50;;;;;;;28.20;13.63;;;0.40;99.90;;;;;;4976092;28;20427;-90
2022/12/04 02:29:39;;;;;;;24.47;14.47;;;0.50;99.90;;;;;;4997117;28;20419;-88
2022/12/04 02:32:11;;;;;;;27.83;15.47;;;0.50;99.90;;;;;;4997097;28;20413;-87
2022/12/04 02:34:46;;;;;;;29.10;16.13;;;0.50;99.90;;;;;;4996898;28;20995;-88
2022/12/04 02:37:29;;;;;;;28.03;17.03;;;0.50;99.90;;;;;;4997185;28;20406;-89
2022/12/04 02:40:06;;;;;;;29.17;14.60;;;0.50;99.90;;;;;;4979350;28;20785;-87
2022/12/04 02:42:42;;;;;;;25.77;14.83;;;0.50;99.90;;;;;;4996958;28;20418;-89
2022/12/04 02:45:22;;;;;;;31.93;15.60;;;0.50;99.90;;;;;;4997063;28;20398;-86
2022/12/04 02:47:49;;;;;;;23.13;13.63;;;0.50;99.90;;;;;;4979303;28;20427;-90
2022/12/04 02:50:21;;;;;;;33.07;17.53;;;0.50;99.90;;;;;;4996815;28;20410;-90
2022/12/04 02:52:52;;;;;;;27.80;16.37;;;0.50;99.90;;;;;;4996838;28;20404;-91
2022/12/04 02:55:31;;;;;;;25.43;15.47;;;0.50;99.90;;;;;;4996506;28;20514;-91
2022/12/04 02:58:01;;;;;;;24.17;13.37;;;0.50;99.90;;;;;;4979392;28;20423;-88
2022/12/04 03:00:28;;;;;;;30.27;16.17;;;0.50;99.90;;;;;;4996746;28;20411;-86
2022/12/04 03:02:59;;;;;;;26.47;12.80;;;0.60;99.90;;;;;;4996802;28;20466;-92
2022/12/04 03:05:35;;;;;;;31.07;15.33;;;0.50;99.90;;;;;;4996939;28;20416;-90
2022/12/04 03:08:06;;;;;;;32.23;15.97;;;0.50;99.90;;;;;;4996559;28;20438;-88
2022/12/04 03:10:37;;;;;;;25.33;14.10;;;0.50;99.90;;;;;;4996606;28;20395;-92
2022/12/04 03:13:11;;;;;;;28.70;14.17;;;0.60;99.90;;;;;;4979179;28;20417;-92
2022/12/04 03:15:43;;;;;;;27.13;12.90;;;0.50;99.90;;;;;;4996538;28;21000;-94
2022/12/04 03:18:24;;;;;;;26.30;14.57;;;0.60;99.90;;;;;;4997000;28;21006;-91
2022/12/04 03:21:01;;;;;;;23.87;13.40;;;0.60;99.90;;;;;;4996113;28;20464;-88
2022/12/04 03:23:33;;;;;;;25.33;13.63;;;0.60;99.90;;;;;;4996516;28;20432;-92
2022/12/04 03:26:32;;;;;;;29.40;13.53;;;0.60;99.90;;;;;;4995536;28;20419;-89
2022/12/04 03:29:06;;;;;;;25.97;14.40;;;0.50;99.90;;;;;;4995999;28;20414;-89
2022/12/04 03:31:58;;;;;;;28.63;13.87;;;0.60;99.90;;;;;;4996027;28;20401;-89
2022/12/04 03:34:45;;;;;;;21.30;12.80;;;0.70;99.90;;;;;;4996157;28;20500;-91
2022/12/04 03:37:16;;;;;;;29.90;16.30;;;0.70;99.90;;;;;;4996124;28;20425;-88
2022/12/04 03:40:08;;;;;;;27.33;13.50;;;0.60;99.90;;;;;;4995601;28;20404;-90
2022/12/04 03:42:46;;;;;;;26.70;15.57;;;0.60;99.90;;;;;;4978379;28;20932;-90
2022/12/04 03:45:24;;;;;;;26.93;13.97;;;0.60;99.90;;;;;;4995604;28;20478;-91
2022/12/04 03:48:27;;;;;;;33.23;15.23;;;0.70;99.90;;;;;;4978503;28;20485;-91
2022/12/04 03:51:14;;;;;;;29.63;15.20;;;0.60;99.90;;;;;;4898677;29;20431;-91
2022/12/04 03:53:47;;;;;;;26.60;15.20;;;0.70;99.90;;;;;;4990922;28;20459;-91
2022/12/04 03:56:21;;;;;;;30.83;14.40;;;0.60;99.90;;;;;;4996123;28;20403;-87
2022/12/04 03:58:54;;;;;;;31.10;15.87;;;0.60;99.90;;;;;;4995190;28;20399;-91
2022/12/04 04:01:31;;;;;;;26.20;15.17;;;0.60;99.90;;;;;;4976198;28;20408;-86
2022/12/04 04:04:02;;;;;;;30.70;15.37;;;0.70;99.90;;;;;;4975491;28;20421;-90
2022/12/04 04:06:32;;;;;;;27.00;14.90;;;0.60;99.90;;;;;;4976529;28;20428;-90
2022/12/04 04:09:07;;;;;;;28.67;14.63;;;0.60;99.90;;;;;;4987591;28;20415;-91
2022/12/04 04:11:42;;;;;;;31.07;15.57;;;0.60;99.90;;;;;;4981238;28;20416;-85
2022/12/04 04:25:37;;;;;;;31.40;15.63;;;0.60;99.90;;;;;;4975888;28;20410;-91
2022/12/04 04:28:02;;;;;;;28.53;13.97;;;0.60;99.90;;;;;;4976180;28;20438;-92
2022/12/04 04:30:31;;;;;;;32.73;16.67;;;0.60;99.90;;;;;;4976011;28;20463;-91
2022/12/04 04:33:05;;;;;;;26.50;14.80;;;0.60;99.90;;;;;;4976098;28;20240;-92
2022/12/04 04:35:48;;;;;;;27.60;14.97;;;0.50;99.90;;;;;;4976046;28;20535;-92
2022/12/04 04:38:29;;;;;;;26.30;15.17;;;0.60;99.90;;;;;;4975825;28;20419;-91
2022/12/04 04:41:20;;;;;;;25.53;12.27;;;0.60;99.90;;;;;;4975930;28;20393;-93
2022/12/04 04:44:10;;;;;;;27.00;14.70;;;0.50;99.90;;;;;;4975807;28;20409;-92
2022/12/04 04:46:42;;;;;;;23.00;11.13;;;0.60;99.90;;;;;;4975914;28;20407;-91
2022/12/04 04:49:10;;;;;;;27.20;14.57;;;0.60;99.90;;;;;;4975981;28;20410;-91
2022/12/04 04:51:36;;;;;;;26.30;14.50;;;0.60;99.90;;;;;;4975536;28;20503;-91
2022/12/04 04:54:07;;;;;;;26.93;15.67;;;0.60;99.90;;;;;;4975345;28;20462;-93
2022/12/04 04:56:39;;;;;;;25.93;15.07;;;0.60;99.90;;;;;;4958682;28;20435;-91
2022/12/04 04:59:04;;;;;;;22.97;13.57;;;0.60;99.90;;;;;;4975768;28;20465;-93
2022/12/04 05:01:30;;;;;;;28.53;15.60;;;0.60;99.90;;;;;;4975611;28;20916;-94
2022/12/04 05:03:55;;;;;;;33.50;17.17;;;0.60;99.90;;;;;;4975507;28;20178;-93
2022/12/04 05:06:21;;;;;;;28.30;14.47;;;0.70;99.90;;;;;;4975739;28;20170;-94
2022/12/04 05:08:48;;;;;;;27.20;13.20;;;0.60;99.90;;;;;;4975429;28;20189;-92
2022/12/04 05:11:15;;;;;;;26.67;15.20;;;0.60;99.90;;;;;;4976719;28;20225;-92
2022/12/04 05:13:41;;;;;;;26.60;13.83;;;0.70;99.90;;;;;;4979822;28;20466;-93
2022/12/04 05:16:11;;;;;;;28.80;14.17;;;0.70;99.90;;;;;;4979785;28;20568;-93
2022/12/04 05:18:37;;;;;;;24.60;14.57;;;0.60;99.90;;;;;;4963144;28;20198;-93
2022/12/04 05:21:16;;;;;;;34.77;15.50;;;0.70;99.90;;;;;;4978507;28;20894;-91
2022/12/04 05:23:42;;;;;;;28.13;14.90;;;0.70;99.90;;;;;;4960159;28;20179;-82
2022/12/04 05:26:07;;;;;;;29.67;15.97;;;0.70;99.90;;;;;;4977521;28;20511;-86
2022/12/04 05:28:33;;;;;;;30.30;15.87;;;0.70;99.90;;;;;;4976873;28;20220;-82
2022/12/04 05:31:00;;;;;;;29.67;16.40;;;0.80;99.90;;;;;;4977552;28;20176;-81
2022/12/04 05:33:26;;;;;;;32.03;17.23;;;0.70;99.90;;;;;;4977557;28;20230;-93
2022/12/04 05:36:07;;;;;;;29.43;16.50;;;0.70;99.90;;;;;;4960638;28;20522;-94
2022/12/04 05:38:33;;;;;;;30.50;16.90;;;0.70;99.90;;;;;;4960502;28;20770;-91
2022/12/04 05:41:00;;;;;;;28.80;16.83;;;0.70;99.90;;;;;;4978102;28;20447;-92
2022/12/04 05:43:26;;;;;;;30.43;16.37;;;0.80;99.90;;;;;;4986951;28;20767;-91
2022/12/04 05:45:51;;;;;;;27.97;14.47;;;0.80;99.90;;;;;;4974595;28;20534;-85
2022/12/04 05:48:16;;;;;;;29.17;17.03;;;0.80;99.90;;;;;;4986166;28;20185;-89
2022/12/04 05:50:42;;;;;;;27.87;14.43;;;0.80;99.90;;;;;;4978788;28;20284;-93
2022/12/04 05:53:07;;;;;;;30.20;15.67;;;0.80;99.90;;;;;;4977384;28;20171;-90
2022/12/04 05:55:33;;;;;;;31.03;13.67;;;0.80;99.90;;;;;;4978272;28;20220;-93
2022/12/04 05:57:59;;;;;;;32.43;17.40;;;0.70;99.90;;;;;;4977365;28;20626;-92
2022/12/04 06:00:24;;;;;;;30.83;15.40;;;0.70;99.90;;;;;;4960097;28;20308;-87
2022/12/04 06:02:50;;;;;;;32.80;16.53;;;0.80;99.90;;;;;;4977399;28;20755;-92
2022/12/04 06:05:15;;;;;;;33.40;16.10;;;0.80;99.90;;;;;;4977351;28;20187;-92
2022/12/04 06:07:41;;;;;;;28.17;13.77;;;0.80;99.90;;;;;;4977248;28;20231;-91
2022/12/04 06:10:06;;;;;;;27.47;15.00;;;0.80;99.90;;;;;;4976896;28;20184;-90
2022/12/04 06:12:32;;;;;;;28.63;14.93;;;0.90;99.90;;;;;;4977122;28;20172;-91
2022/12/04 06:14:58;;;;;;;30.30;15.10;;;0.80;99.90;;;;;;4976004;28;20616;-89
2022/12/04 06:17:23;;;;;;;25.40;13.23;;;0.80;99.90;;;;;;4977101;28;20164;-91
2022/12/04 06:19:49;;;;;;;28.25;16.05;;;0.80;99.90;;;;;;4919362;28;1691685;-88
2022/12/04 06:22:14;;;;;;;25.37;14.33;;;0.80;99.90;;;;;;4977679;28;20176;-93
2022/12/04 06:24:40;;;;;;;25.87;14.20;;;0.80;99.90;;;;;;4977758;28;20629;-93
2022/12/04 06:27:05;;;;;;;29.30;15.40;;;0.80;99.90;;;;;;4978203;28;20700;-94
2022/12/04 06:29:33;;;;;;;28.43;15.50;;;0.80;99.90;;;;;;4978009;28;20183;-92
2022/12/04 06:31:59;;;;;;;29.13;14.47;;;0.80;99.90;;;;;;4977944;28;20199;-92
2022/12/04 06:34:24;;;;;;;27.40;13.80;;;0.90;99.90;;;;;;4977934;28;20464;-91
2022/12/04 06:36:50;;;;;;;30.40;17.20;;;0.90;99.90;;;;;;4984676;28;20191;-92
2022/12/04 06:39:15;;;;;;;31.77;16.07;;;1.00;99.90;;;;;;4977762;28;20182;-93
2022/12/04 06:41:41;;;;;;;31.03;17.80;;;1.00;99.90;;;;;;4977902;28;20178;-92
2022/12/04 06:44:07;;;;;;;34.77;16.07;;;0.90;99.90;;;;;;4977675;28;20181;-91
2022/12/04 06:46:33;;;;;;;33.30;16.93;;;1.00;99.90;;;;;;4977784;28;20458;-92
2022/12/04 06:49:00;;;;;;;36.27;16.47;;;0.90;99.90;;;;;;4977493;28;20219;-83
2022/12/04 06:51:35;;;;;;;30.80;16.30;;;0.90;99.90;;;;;;4976589;28;20766;-82
2022/12/04 06:54:01;;;;;;;31.40;17.20;;;1.00;99.90;;;;;;4976081;28;20455;-82
2022/12/04 06:56:31;;;;;;;26.47;14.97;;;1.00;99.90;;;;;;4976528;28;20945;-82
2022/12/04 06:58:59;;;;;;;26.77;15.43;;;1.00;99.90;;;;;;4959190;28;20440;-83
2022/12/04 07:01:27;;;;;;;30.57;13.80;;;0.90;99.90;;;;;;4976386;28;20429;-83
2022/12/04 07:03:53;;;;;;;28.87;15.33;;;1.00;99.90;;;;;;4976228;28;20416;-82
2022/12/04 07:06:24;;;;;;;33.40;15.80;;;0.90;99.90;;;;;;4958932;28;20420;-82
2022/12/04 07:08:57;;;;;;;37.87;16.20;;;0.90;99.90;;;;;;4975856;28;20834;-82
2022/12/04 07:11:23;;;;;;;29.30;17.80;;;1.00;99.90;;;;;;4958891;28;20831;-82
2022/12/04 07:13:49;;;;;;;34.80;15.37;;;1.00;99.90;;;;;;4974886;28;20458;-81
2022/12/04 07:16:17;;;;;;;29.90;16.77;;;0.90;99.90;;;;;;4976169;28;20177;-85
2022/12/04 07:18:43;;;;;;;32.77;18.10;;;0.90;99.90;;;;;;4975675;28;20430;-93
2022/12/04 07:21:12;;;;;;;35.73;15.50;;;1.00;99.90;;;;;;4976017;28;20988;-82
2022/12/04 07:23:38;;;;;;;31.37;16.83;;;1.00;99.90;;;;;;4958188;28;20683;-92
2022/12/04 07:26:08;;;;;;;32.20;16.80;;;1.00;99.90;;;;;;4974951;28;20525;-94
2022/12/04 07:28:35;;;;;;;27.03;15.40;;;1.10;99.90;;;;;;4975748;28;20182;-81
2022/12/04 07:31:14;;;;;;;41.10;19.30;;;1.00;99.90;;;;;;4958402;28;20435;-82
2022/12/04 07:33:40;;;;;;;65.97;29.67;;;1.10;99.90;;;;;;4974929;28;20444;-81
2022/12/04 07:36:08;;;;;;;39.97;18.23;;;1.10;99.90;;;;;;4975728;28;20424;-81
2022/12/04 07:38:34;;;;;;;38.40;18.17;;;1.00;99.90;;;;;;4973900;28;20433;-81
2022/12/04 07:41:02;;;;;;;31.90;17.07;;;1.10;99.90;;;;;;4974503;28;20431;-82
2022/12/04 07:43:28;;;;;;;37.10;19.93;;;1.10;99.90;;;;;;4958180;28;20425;-81
2022/12/04 07:45:54;;;;;;;32.47;17.30;;;1.10;99.90;;;;;;4975725;28;20427;-81
2022/12/04 07:48:20;;;;;;;37.10;19.13;;;1.20;99.90;;;;;;4975455;28;20437;-81
2022/12/04 07:50:46;;;;;;;35.63;16.07;;;1.20;99.90;;;;;;4975461;28;20417;-85
2022/12/04 07:53:11;;;;;;;23.40;14.73;;;1.20;99.90;;;;;;4975078;28;20175;-82
2022/12/04 07:55:37;;;;;;;32.30;16.33;;;1.20;99.90;;;;;;4973938;28;20216;-81
2022/12/04 07:58:03;;;;;;;32.17;16.07;;;1.20;99.90;;;;;;4975293;28;20539;-81
2022/12/04 08:00:28;;;;;;;26.97;16.73;;;1.20;99.90;;;;;;4975206;28;20179;-82
2022/12/04 08:02:54;;;;;;;36.37;17.43;;;1.30;99.90;;;;;;4975323;28;20180;-83
2022/12/04 08:05:20;;;;;;;34.00;18.63;;;1.30;99.90;;;;;;4957891;28;20705;-84
2022/12/04 08:07:46;;;;;;;32.20;17.70;;;1.30;99.90;;;;;;4973808;28;20468;-82
2022/12/04 08:10:12;;;;;;;36.23;17.13;;;1.30;99.90;;;;;;4974889;28;20484;-83
2022/12/04 08:12:38;;;;;;;28.53;17.80;;;1.40;99.90;;;;;;4975452;28;20201;-84
2022/12/04 08:15:05;;;;;;;32.63;18.90;;;1.40;99.90;;;;;;4974957;28;20476;-83
2022/12/04 08:17:30;;;;;;;32.83;17.83;;;1.50;99.90;;;;;;4975015;28;20633;-89
2022/12/04 08:19:56;;;;;;;39.23;17.00;;;1.30;99.90;;;;;;4974634;28;20464;-83
2022/12/04 08:22:22;;;;;;;30.77;16.10;;;1.30;99.90;;;;;;4974966;28;20534;-83
2022/12/04 08:24:47;;;;;;;35.40;16.73;;;1.30;99.90;;;;;;4974608;28;20232;-87
2022/12/04 08:27:13;;;;;;;40.23;17.20;;;1.40;99.90;;;;;;4985728;28;20420;-87
2022/12/04 08:29:38;;;;;;;35.00;17.03;;;1.40;99.90;;;;;;4975111;28;20173;-82
2022/12/04 08:32:04;;;;;;;34.40;16.37;;;1.40;99.90;;;;;;4975174;28;20577;-86
2022/12/04 08:34:30;;;;;;;36.70;17.97;;;1.40;99.90;;;;;;4979707;28;20209;-82
2022/12/04 08:36:56;;;;;;;35.33;17.60;;;1.50;99.90;;;;;;4984590;28;20420;-85
2022/12/04 08:39:21;;;;;;;32.23;17.33;;;1.50;99.90;;;;;;4992981;28;20418;-86
2022/12/04 08:41:47;;;;;;;37.23;18.17;;;1.60;99.90;;;;;;4979650;28;20255;-89
2022/12/04 08:44:12;;;;;;;32.60;19.20;;;1.50;99.90;;;;;;4959531;28;20178;-92
2022/12/04 08:46:38;;;;;;;33.90;17.83;;;1.60;99.90;;;;;;4977355;28;20642;-94
2022/12/04 08:49:03;;;;;;;27.53;16.30;;;1.60;99.90;;;;;;4979494;28;20177;-86
2022/12/04 08:51:33;;;;;;;35.30;15.63;;;1.60;99.90;;;;;;4994701;23;20160;-81
2022/12/04 08:54:05;;;;;;;32.43;17.23;;;1.70;99.90;;;;;;4996769;28;20281;-81
2022/12/04 08:56:31;;;;;;;32.00;17.27;;;1.70;99.90;;;;;;4994385;28;20427;-81
2022/12/04 08:58:57;;;;;;;30.20;15.10;;;1.70;99.90;;;;;;4977644;28;20426;-81
2022/12/04 09:01:24;;;;;;;35.50;15.70;;;1.70;99.90;;;;;;4994248;28;20416;-81
2022/12/04 09:03:49;;;;;;;32.70;18.20;;;1.70;99.90;;;;;;4976327;28;20487;-81
2022/12/04 09:06:15;;;;;;;36.90;18.50;;;1.70;99.90;;;;;;4994742;28;20915;-81
2022/12/04 09:08:42;;;;;;;25.23;13.87;;;1.80;99.90;;;;;;4975335;28;20251;-81
2022/12/04 09:11:16;;;;;;;32.13;17.37;;;1.80;99.90;;;;;;4993507;28;20250;-82
2022/12/04 09:13:43;;;;;;;29.17;15.40;;;1.80;99.90;;;;;;4976296;28;20946;-82
2022/12/04 09:16:12;;;;;;;30.03;17.10;;;2.00;99.90;;;;;;4995490;28;20426;-82
2022/12/04 09:18:38;;;;;;;32.13;15.87;;;2.10;99.90;;;;;;4994678;28;20415;-81
2022/12/04 09:21:06;;;;;;;31.47;15.40;;;2.00;99.90;;;;;;4994974;28;20421;-82
2022/12/04 09:23:33;;;;;;;27.03;14.47;;;2.00;99.90;;;;;;4994510;28;20173;-81
2022/12/04 09:26:02;;;;;;;28.00;15.80;;;2.00;99.90;;;;;;4993738;28;20768;-81
2022/12/04 09:28:28;;;;;;;28.63;15.47;;;2.10;99.90;;;;;;4994405;28;20418;-80
2022/12/04 09:30:58;;;;;;;27.33;16.10;;;2.10;99.90;;;;;;4977254;28;20453;-81
2022/12/04 09:33:24;;;;;;;24.77;14.37;;;2.10;99.90;;;;;;4995709;28;20167;-82
2022/12/04 09:35:50;;;;;;;33.33;16.30;;;2.20;99.90;;;;;;4994934;28;20962;-82
2022/12/04 09:38:15;;;;;;;30.53;16.00;;;2.20;99.90;;;;;;4995322;28;20531;-81
2022/12/04 09:41:03;;;;;;;27.87;14.80;;;2.20;99.90;;;;;;5014874;28;20525;-81
2022/12/04 09:43:41;;;;;;;26.10;14.87;;;2.20;99.90;;;;;;5013880;28;20203;-81
2022/12/04 09:46:14;;;;;;;27.43;13.93;;;2.20;99.90;;;;;;5013820;28;20410;-81
2022/12/04 09:48:43;;;;;;;26.33;14.17;;;2.30;99.90;;;;;;5013055;28;20414;-81
2022/12/04 09:51:17;;;;;;;29.70;14.37;;;2.40;99.90;;;;;;5014867;28;20417;-81
2022/12/04 09:54:04;;;;;;;27.27;12.60;;;2.40;99.90;;;;;;5013120;28;21062;-81
2022/12/04 09:56:31;;;;;;;29.50;14.33;;;2.40;99.90;;;;;;5013573;28;20414;-81
2022/12/04 09:59:05;;;;;;;25.70;13.20;;;2.40;99.90;;;;;;5016833;28;20414;-81
2022/12/04 10:01:48;;;;;;;26.80;15.20;;;2.50;99.90;;;;;;5016575;28;20421;-81
2022/12/04 10:04:17;;;;;;;24.50;11.30;;;2.60;99.90;;;;;;5017588;28;20436;-81
2022/12/04 10:06:58;;;;;;;26.70;13.63;;;2.50;99.90;;;;;;5017621;28;20496;-81
2022/12/04 10:09:35;;;;;;;31.10;20.13;;;2.60;99.90;;;;;;5016026;28;20413;-81
2022/12/04 10:12:30;;;;;;;27.50;14.97;;;2.50;99.90;;;;;;5017129;28;20409;-81
2022/12/04 10:15:00;;;;;;;26.53;14.30;;;2.50;99.90;;;;;;5017352;28;20469;-81
2022/12/04 10:17:33;;;;;;;24.43;14.17;;;2.50;99.90;;;;;;5019159;28;20421;-81
2022/12/04 10:20:15;;;;;;;30.13;14.13;;;2.50;99.90;;;;;;4999318;28;20799;-82
2022/12/04 10:23:16;;;;;;;24.00;14.47;;;2.50;99.90;;;;;;4998104;28;21004;-82
2022/12/04 10:25:42;;;;;;;27.07;14.50;;;2.50;99.90;;;;;;5016424;28;20415;-81
2022/12/04 10:28:30;;;;;;;27.70;15.03;;;2.60;99.90;;;;;;5019787;28;20476;-82
2022/12/04 10:31:00;;;;;;;29.07;14.17;;;2.50;99.90;;;;;;5016945;28;20410;-81
2022/12/04 10:33:40;;;;;;;26.23;14.87;;;2.50;99.90;;;;;;5016280;28;20406;-81
2022/12/04 10:36:10;;;;;;;22.17;12.57;;;2.60;99.90;;;;;;5000326;28;20854;-82
2022/12/04 10:38:47;;;;;;;27.07;13.27;;;2.60;99.90;;;;;;4989125;28;20762;-81
2022/12/04 10:41:25;;;;;;;21.87;13.30;;;2.60;99.90;;;;;;4970826;28;20427;-82
2022/12/04 10:43:51;;;;;;;25.13;12.93;;;2.60;99.90;;;;;;4984836;28;20444;-82
2022/12/04 10:46:32;;;;;;;25.17;13.70;;;2.60;99.90;;;;;;4986773;28;20438;-82
2022/12/04 10:48:59;;;;;;;28.53;14.27;;;2.70;99.90;;;;;;4987564;28;20419;-82
2022/12/04 10:51:25;;;;;;;24.17;13.67;;;2.70;99.90;;;;;;4990067;28;20427;-82
2022/12/04 10:53:51;;;;;;;27.90;14.90;;;2.70;99.90;;;;;;4987778;28;20456;-82
2022/12/04 10:56:25;;;;;;;30.93;14.43;;;2.80;99.90;;;;;;4987438;28;20179;-82
2022/12/04 10:59:03;;;;;;;30.17;14.40;;;2.70;99.90;;;;;;4986384;28;20221;-82
2022/12/04 11:01:30;;;;;;;29.90;14.80;;;2.70;99.90;;;;;;4962332;28;20432;-82
2022/12/04 11:04:17;;;;;;;23.67;14.00;;;2.80;99.90;;;;;;4977115;28;20424;-82
2022/12/04 11:06:43;;;;;;;22.57;12.87;;;2.80;99.90;;;;;;4958984;28;20419;-82
2022/12/04 11:09:22;;;;;;;26.03;14.10;;;2.80;99.90;;;;;;4980707;28;20421;-82
2022/12/04 11:12:17;;;;;;;25.17;12.10;;;2.80;99.90;;;;;;4995828;28;20426;-82
2022/12/04 11:14:46;;;;;;;28.83;15.03;;;2.70;99.90;;;;;;4996317;28;20515;-82
2022/12/04 11:17:18;;;;;;;21.57;12.13;;;2.80;99.90;;;;;;4985542;28;20434;-82
2022/12/04 11:19:46;;;;;;;21.37;14.50;;;2.80;99.90;;;;;;5007479;28;20762;-82
2022/12/04 11:22:15;;;;;;;25.47;13.03;;;2.70;99.90;;;;;;5004394;28;20450;-82
2022/12/04 11:24:41;;;;;;;20.03;12.60;;;2.70;99.90;;;;;;4996677;28;20416;-82
2022/12/04 11:27:18;;;;;;;27.87;12.07;;;2.60;99.90;;;;;;5021811;23;20478;-82
2022/12/04 11:29:45;;;;;;;24.37;13.10;;;2.60;99.90;;;;;;5006789;28;20427;-82
2022/12/04 11:32:32;;;;;;;28.87;17.03;;;2.80;99.90;;;;;;5005341;28;20427;-82
2022/12/04 11:35:05;;;;;;;21.73;12.73;;;2.80;99.90;;;;;;5010993;28;20469;-83
2022/12/04 11:37:33;;;;;;;32.13;14.40;;;2.80;99.90;;;;;;5047008;23;20482;-82
2022/12/04 11:40:05;;;;;;;25.57;14.60;;;2.70;99.90;;;;;;4995602;28;20428;-81
2022/12/04 11:42:31;;;;;;;27.67;14.87;;;2.70;99.90;;;;;;4979399;28;20432;-82
2022/12/04 11:45:02;;;;;;;22.57;14.30;;;2.80;99.90;;;;;;4994143;28;20439;-82
2022/12/04 11:47:30;;;;;;;23.70;12.80;;;2.90;99.90;;;;;;4979841;28;20185;-82
2022/12/04 11:50:11;;;;;;;26.30;15.13;;;2.90;99.90;;;;;;4997124;28;20439;-82
2022/12/04 11:52:52;;;;;;;24.97;12.83;;;3.00;99.90;;;;;;4988264;28;20934;-82
2022/12/04 11:55:45;;;;;;;23.70;14.20;;;3.00;99.90;;;;;;4977323;28;20468;-81
2022/12/04 11:58:44;;;;;;;25.70;13.33;;;2.90;99.90;;;;;;4960954;29;20823;-82
2022/12/04 12:01:48;;;;;;;23.80;12.57;;;2.90;99.90;;;;;;4977326;28;20413;-87
2022/12/04 12:04:40;;;;;;;29.30;14.27;;;2.90;99.90;;;;;;4936842;28;20424;-87
2022/12/04 12:07:09;;;;;;;24.93;14.03;;;3.00;99.90;;;;;;4965054;28;20424;-85
2022/12/04 12:09:59;;;;;;;19.43;12.33;;;3.00;99.90;;;;;;4963899;28;20495;-86
2022/12/04 12:12:50;;;;;;;28.63;16.80;;;2.90;99.90;;;;;;4962917;28;21094;-88
2022/12/04 12:15:16;;;;;;;21.23;13.27;;;3.00;99.90;;;;;;4974205;28;20797;-88
2022/12/04 12:17:48;;;;;;;30.70;15.90;;;3.00;99.90;;;;;;4976524;28;20588;-88
2022/12/04 12:20:22;;;;;;;28.53;16.10;;;3.00;99.90;;;;;;4975339;28;20177;-90
2022/12/04 12:22:51;;;;;;;25.70;14.23;;;3.00;99.90;;;;;;4975262;28;20408;-89
2022/12/04 12:25:27;;;;;;;30.67;15.17;;;3.10;99.90;;;;;;4958401;28;20420;-90
2022/12/04 12:28:02;;;;;;;26.53;13.63;;;3.10;99.90;;;;;;4958378;28;20419;-91
2022/12/04 12:30:37;;;;;;;21.03;12.37;;;3.10;99.90;;;;;;4975822;28;20411;-89
2022/12/04 12:33:26;;;;;;;22.13;13.97;;;3.00;99.90;;;;;;4975569;28;20416;-91
2022/12/04 12:36:11;;;;;;;24.70;12.07;;;3.10;99.90;;;;;;4975402;28;20566;-90
2022/12/04 12:38:50;;;;;;;23.80;13.47;;;3.10;99.90;;;;;;4958169;28;20482;-89
2022/12/04 12:41:20;;;;;;;26.43;14.20;;;3.10;99.90;;;;;;4975648;28;20458;-90
2022/12/04 12:43:53;;;;;;;22.80;12.47;;;3.10;99.90;;;;;;4975707;28;20984;-91
2022/12/04 12:46:21;;;;;;;23.33;12.53;;;3.10;99.90;;;;;;4975894;28;20400;-91
2022/12/04 12:49:21;;;;;;;27.87;14.37;;;3.10;99.90;;;;;;4975852;28;20413;-89
2022/12/04 12:51:52;;;;;;;20.00;11.70;;;3.10;99.90;;;;;;4975972;28;20415;-90
2022/12/04 12:54:57;;;;;;;23.73;13.27;;;3.20;99.90;;;;;;4975304;28;20463;-91
2022/12/04 12:57:32;;;;;;;23.03;12.40;;;3.20;99.90;;;;;;4975524;28;20499;-89
2022/12/04 13:00:11;;;;;;;21.03;12.00;;;3.20;99.90;;;;;;4975644;28;20413;-91
2022/12/04 13:02:50;;;;;;;27.03;13.93;;;3.30;99.90;;;;;;4957598;28;20420;-92
2022/12/04 13:05:23;;;;;;;22.30;12.37;;;3.20;99.90;;;;;;4954741;29;20424;-90
2022/12/04 13:07:52;;;;;;;24.47;12.97;;;3.20;99.90;;;;;;4940062;28;20423;-88
2022/12/04 13:10:17;;;;;;;22.47;13.50;;;3.20;99.90;;;;;;4969616;28;20416;-89